createdAt,value
2022-07-28T00:00:09.790Z,101611.56
2022-07-28T00:05:12.851Z,101615.63
2022-07-28T00:10:15.772Z,101612.72
2022-07-28T00:15:19.924Z,101605.28
2022-07-28T00:20:22.819Z,101600.97
2022-07-28T00:25:25.754Z,101609.44
2022-07-28T00:30:30.649Z,101604.63
2022-07-28T00:35:33.603Z,101606.84
2022-07-28T00:40:53.932Z,101605.31
2022-07-28T00:45:58.184Z,101600.78
2022-07-28T00:51:01.073Z,101600.69
2022-07-28T00:56:06.613Z,101597.16
2022-07-28T01:01:15.771Z,101593.69
2022-07-28T01:06:33.212Z,101595.38
2022-07-28T01:11:43.760Z,101598.53
2022-07-28T01:16:54.639Z,101601.22
2022-07-28T01:21:59.923Z,101608.66
2022-07-28T01:27:07.109Z,101600.53
2022-07-28T01:32:14.767Z,101603.94
2022-07-28T01:37:21.402Z,101608.56
2022-07-28T01:42:27.540Z,101611.50
2022-07-28T01:47:33.972Z,101611.75
2022-07-28T01:52:38.419Z,101617.16
2022-07-28T01:57:42.556Z,101612.53
2022-07-28T02:02:49.798Z,101610.47
2022-07-28T02:07:54.488Z,101613.63
2022-07-28T02:12:58.737Z,101613.19
2022-07-28T02:18:04.244Z,101604.84
2022-07-28T02:23:08.134Z,101597.38
2022-07-28T02:28:13.158Z,101596.06
2022-07-28T02:33:28.169Z,101597.84
2022-07-28T02:38:46.589Z,101603.50
2022-07-28T02:43:51.799Z,101604.50
2022-07-28T02:49:04.633Z,101606.19
2022-07-28T02:54:07.844Z,101610.69
2022-07-28T02:59:12.330Z,101610.59
2022-07-28T03:04:37.933Z,101617.38
2022-07-28T03:09:41.661Z,101624.81
2022-07-28T03:14:44.438Z,101624.47
2022-07-28T03:19:48.688Z,101630.22
2022-07-28T03:24:54.236Z,101631.81
2022-07-28T03:30:03.834Z,101635.31
2022-07-28T03:35:09.386Z,101638.16
2022-07-28T03:40:14.049Z,101645.59
2022-07-28T03:45:17.466Z,101643.66
2022-07-28T03:50:25.017Z,101642.09
2022-07-28T03:55:28.432Z,101647.03
2022-07-28T04:00:31.443Z,101656.84
2022-07-28T04:05:35.633Z,101661.75
2022-07-28T04:10:38.510Z,101656.63
2022-07-28T04:15:41.591Z,101651.97
2022-07-28T04:20:45.958Z,101648.63
2022-07-28T04:25:49.009Z,101661.84
2022-07-28T04:30:51.887Z,101664.09
2022-07-28T04:35:56.162Z,101655.84
2022-07-28T04:40:59.064Z,101655.25
2022-07-28T04:46:01.960Z,101661.97
2022-07-28T04:51:06.202Z,101664.88
2022-07-28T04:56:09.050Z,101662.56
2022-07-28T05:01:12.061Z,101651.66
2022-07-28T05:06:18.554Z,101655.28
2022-07-28T05:11:21.392Z,101657.72
2022-07-28T05:16:24.625Z,101651.66
2022-07-28T05:21:28.909Z,101653.19
2022-07-28T05:26:32.235Z,101661.84
2022-07-28T05:31:35.465Z,101667.31
2022-07-28T05:36:39.922Z,101675.66
2022-07-28T05:41:43.103Z,101684.13
2022-07-28T05:46:45.953Z,101687.38
2022-07-28T05:51:50.207Z,101687.47
2022-07-28T05:56:53.030Z,101686.94
2022-07-28T06:01:55.905Z,101686.31
2022-07-28T06:07:00.083Z,101684.78
2022-07-28T06:12:02.967Z,101684.78
2022-07-28T06:17:05.998Z,101677.72
2022-07-28T06:22:10.494Z,101673.03
2022-07-28T06:27:13.302Z,101688.06
2022-07-28T06:32:17.083Z,101694.56
2022-07-28T06:37:21.230Z,101704.34
2022-07-28T06:42:24.163Z,101707.97
2022-07-28T06:47:27.076Z,101703.38
2022-07-28T06:52:31.646Z,101704.13
2022-07-28T06:57:35.007Z,101707.19
2022-07-28T07:02:39.805Z,101708.59
2022-07-28T07:07:46.421Z,101703.72
2022-07-28T07:12:49.347Z,101713.38
2022-07-28T07:17:52.287Z,101703.38
2022-07-28T07:22:56.614Z,101707.50
2022-07-28T07:27:59.523Z,101713.19
2022-07-28T07:33:02.511Z,101717.78
2022-07-28T07:38:12.096Z,101720.28
2022-07-28T07:43:14.924Z,101720.66
2022-07-28T07:48:17.752Z,101716.31
2022-07-28T07:53:22.910Z,101718.22
2022-07-28T07:58:25.813Z,101716.72
2022-07-28T08:03:28.624Z,101718.72
2022-07-28T08:08:38.570Z,101712.38
2022-07-28T08:13:44.619Z,101718.91
2022-07-28T08:18:47.566Z,101719.81
2022-07-28T08:23:52.007Z,101714.63
2022-07-28T08:28:54.948Z,101718.59
2022-07-28T08:33:58.391Z,101716.06
2022-07-28T08:39:02.593Z,101723.31
2022-07-28T08:44:08.851Z,101716.28
2022-07-28T08:49:14.839Z,101712.34
2022-07-28T08:54:22.545Z,101702.16
2022-07-28T08:59:26.390Z,101706.50
2022-07-28T09:04:29.444Z,101708.75
2022-07-28T09:09:34.080Z,101705.97
2022-07-28T09:14:36.980Z,101698.44
2022-07-28T09:19:40.280Z,101691.34
2022-07-28T09:24:45.838Z,101693.63
2022-07-28T09:29:58.968Z,101686.78
2022-07-28T09:35:01.844Z,101692.69
2022-07-28T09:40:13.959Z,101697.75
2022-07-28T09:45:25.228Z,101699.69
2022-07-28T09:50:30.225Z,101697.25
2022-07-28T09:55:52.516Z,101699.38
2022-07-28T10:01:07.183Z,101689.28
2022-07-28T10:06:16.158Z,101698.75
2022-07-28T10:11:24.526Z,101704.31
2022-07-28T10:16:29.365Z,101700.56
2022-07-28T10:21:35.498Z,101697.69
2022-07-28T10:26:44.324Z,101688.28
2022-07-28T10:31:50.823Z,101695.44
2022-07-28T10:36:56.389Z,101688.38
2022-07-28T10:42:01.253Z,101685.72
2022-07-28T10:47:07.596Z,101690.19
2022-07-28T10:52:30.958Z,101684.09
2022-07-28T10:57:39.882Z,101692.91
2022-07-28T11:02:51.592Z,101686.06
2022-07-28T11:07:54.963Z,101690.78
2022-07-28T11:13:00.606Z,101679.94
2022-07-28T11:18:09.248Z,101687.88
2022-07-28T11:23:50.167Z,101680.38
2022-07-28T11:29:19.930Z,101686.44
2022-07-28T11:34:25.279Z,101686.78
2022-07-28T11:39:30.242Z,101684.34
2022-07-28T11:44:47.631Z,101685.50
2022-07-28T11:50:12.756Z,101678.56
2022-07-28T11:55:19.387Z,101682.25
2022-07-28T12:00:26.136Z,101688.22
2022-07-28T12:05:34.526Z,101678.59
2022-07-28T12:10:54.473Z,101677.94
2022-07-28T12:15:59.721Z,101676.06
2022-07-28T12:21:05.234Z,101679.84
2022-07-28T12:26:10.199Z,101677.06
2022-07-28T12:31:15.711Z,101672.78
2022-07-28T12:36:19.662Z,101675.50
2022-07-28T12:41:23.635Z,101679.81
2022-07-28T12:46:30.779Z,101675.38
2022-07-28T12:51:36.426Z,101661.31
2022-07-28T12:56:47.031Z,101661.16
2022-07-28T13:01:54.176Z,101664.97
2022-07-28T13:06:57.523Z,101659.69
2022-07-28T13:12:00.431Z,101657.25
2022-07-28T13:17:04.606Z,101652.44
2022-07-28T13:22:09.176Z,101650.72
2022-07-28T13:27:12.388Z,101646.31
2022-07-28T13:32:16.781Z,101644.25
2022-07-28T13:37:20.212Z,101633.41
2022-07-28T13:42:23.575Z,101633.59
2022-07-28T13:47:28.337Z,101630.59
2022-07-28T13:52:42.102Z,101628.63
2022-07-28T13:57:45.335Z,101627.44
2022-07-28T14:02:53.945Z,101621.81
2022-07-28T14:07:56.842Z,101625.19
2022-07-28T14:13:03.325Z,101611.69
2022-07-28T14:18:07.936Z,101617.34
2022-07-28T14:23:10.867Z,101623.72
2022-07-28T14:28:13.757Z,101619.66
2022-07-28T14:33:17.938Z,101616.63
2022-07-28T14:38:52.512Z,101605.41
2022-07-28T14:43:43.592Z,101601.69
2022-07-28T14:48:47.774Z,101598.81
2022-07-28T14:53:52.144Z,101598.84
2022-07-28T14:58:55.110Z,101596.28
2022-07-28T15:03:59.248Z,101593.66
2022-07-28T15:09:02.588Z,101592.88
2022-07-28T15:14:05.494Z,101590.31
2022-07-28T15:19:09.709Z,101591.06
2022-07-28T15:24:13.160Z,101586.56
2022-07-28T15:29:16.074Z,101590.41
2022-07-28T15:34:21.455Z,101580.84
2022-07-28T15:39:24.439Z,101582.81
2022-07-28T15:44:27.292Z,101569.50
2022-07-28T15:49:31.574Z,101575.28
2022-07-28T15:54:34.388Z,101568.19
2022-07-28T15:59:49.654Z,101570.25
2022-07-28T16:04:54.895Z,101559.50
2022-07-28T16:09:57.818Z,101554.53
2022-07-28T16:15:00.660Z,101555.16
2022-07-28T16:20:05.760Z,101556.25
2022-07-28T16:25:16.640Z,101563.75
2022-07-28T16:30:20.120Z,101560.34
2022-07-28T16:35:24.291Z,101545.69
2022-07-28T16:40:27.343Z,101552.13
2022-07-28T16:45:31.263Z,101555.16
2022-07-28T16:50:36.000Z,101553.38
2022-07-28T16:55:39.987Z,101546.75
2022-07-28T17:00:43.068Z,101547.13
2022-07-28T17:05:47.261Z,101550.81
2022-07-28T17:10:50.090Z,101546.44
2022-07-28T17:15:53.123Z,101550.75
2022-07-28T17:20:57.408Z,101551.97
2022-07-28T17:31:26.345Z,101546.06
2022-07-28T17:36:33.948Z,101539.63
2022-07-28T17:41:36.784Z,101543.25
2022-07-28T17:46:39.687Z,101539.84
2022-07-28T17:51:45.070Z,101552.34
2022-07-28T17:56:49.578Z,101549.53
2022-07-28T18:01:52.383Z,101553.09
2022-07-28T18:06:56.610Z,101554.31
2022-07-28T18:11:59.421Z,101551.03
2022-07-28T18:17:02.278Z,101553.19
2022-07-28T18:22:06.470Z,101554.59
2022-07-28T18:27:09.365Z,101553.13
2022-07-28T18:32:12.554Z,101556.28
2022-07-28T18:37:16.736Z,101555.00
2022-07-28T18:42:19.682Z,101550.75
2022-07-28T18:47:22.738Z,101545.66
2022-07-28T18:52:27.598Z,101543.53
2022-07-28T18:57:30.539Z,101549.81
2022-07-28T19:02:33.460Z,101551.00
2022-07-28T19:07:38.161Z,101553.59
2022-07-28T19:12:40.954Z,101545.41
2022-07-28T19:17:43.826Z,101557.81
2022-07-28T19:22:48.193Z,101556.47
2022-07-28T19:27:51.377Z,101560.38
2022-07-28T19:32:54.148Z,101562.22
2022-07-28T19:38:00.133Z,101560.31
2022-07-28T19:43:03.126Z,101561.28
2022-07-28T19:48:07.434Z,101570.34
2022-07-28T19:53:14.984Z,101569.47
2022-07-28T19:58:18.359Z,101581.47
2022-07-28T20:04:01.936Z,101581.97
2022-07-28T20:08:45.602Z,101591.75
2022-07-28T20:13:49.398Z,101590.81
2022-07-28T20:18:52.734Z,101598.00
2022-07-28T20:23:58.129Z,101589.56
2022-07-28T20:29:01.590Z,101586.69
2022-07-28T20:34:06.621Z,101591.06
2022-07-28T20:39:34.446Z,101589.81
2022-07-28T20:44:33.873Z,101599.22
2022-07-28T20:49:36.945Z,101599.03
2022-07-28T20:54:41.163Z,101597.44
2022-07-28T20:59:44.361Z,101606.81
2022-07-28T21:04:50.141Z,101600.22
2022-07-28T21:09:54.882Z,101607.97
2022-07-28T21:14:57.923Z,101604.75
2022-07-28T21:20:00.824Z,101605.81
2022-07-28T21:25:07.291Z,101610.59
2022-07-28T21:30:11.561Z,101606.03
2022-07-28T21:35:14.596Z,101616.97
2022-07-28T21:40:18.872Z,101627.25
2022-07-28T21:45:22.478Z,101627.41
2022-07-28T21:50:25.428Z,101622.63
2022-07-28T21:55:32.746Z,101624.16
2022-07-28T22:00:35.645Z,101613.00
2022-07-28T22:05:38.628Z,101616.25
2022-07-28T22:10:42.806Z,101619.00
2022-07-28T22:15:45.656Z,101633.66
2022-07-28T22:20:48.591Z,101636.25
2022-07-28T22:25:52.756Z,101628.97
2022-07-28T22:30:55.677Z,101631.94
2022-07-28T22:35:58.914Z,101637.19
2022-07-28T22:41:03.155Z,101642.59
2022-07-28T22:46:06.009Z,101637.63
2022-07-28T22:51:11.573Z,101635.56
2022-07-28T22:56:15.871Z,101638.38
2022-07-28T23:01:18.803Z,101647.38
2022-07-28T23:06:21.901Z,101657.66
2022-07-28T23:11:26.339Z,101653.28
2022-07-28T23:16:29.212Z,101654.44
2022-07-28T23:21:32.027Z,101657.94
2022-07-28T23:26:36.284Z,101657.94
2022-07-28T23:31:39.290Z,101656.03
2022-07-28T23:36:42.105Z,101665.34
2022-07-28T23:41:47.678Z,101669.19
2022-07-28T23:46:50.568Z,101673.78
2022-07-28T23:51:53.391Z,101662.09
2022-07-28T23:56:57.600Z,101669.50
